sensor_id;sensor_type;location;lat;lon;timestamp;pressure;altitude;pressure_sealevel;temperature;humidity
35248;BME280;21380;52.194;20.520;2024-02-26T00:02:15;99648.31;;;16.42;60.80
35248;BME280;21380;52.194;20.520;2024-02-26T00:04:42;99642.25;;;16.42;60.66
35248;BME280;21380;52.194;20.520;2024-02-26T00:07:08;99634.44;;;16.42;60.64
35248;BME280;21380;52.194;20.520;2024-02-26T00:09:34;99640.50;;;16.41;60.70
35248;BME280;21380;52.194;20.520;2024-02-26T00:12:03;99634.44;;;16.40;61.02
35248;BME280;21380;52.194;20.520;2024-02-26T00:14:30;99632.69;;;16.39;60.65
35248;BME280;21380;52.194;20.520;2024-02-26T00:16:56;99638.75;;;16.40;60.58
35248;BME280;21380;52.194;20.520;2024-02-26T00:19:22;99634.41;;;16.38;60.71
35248;BME280;21380;52.194;20.520;2024-02-26T00:21:48;99637.91;;;16.39;60.60
35248;BME280;21380;52.194;20.520;2024-02-26T00:24:14;99630.94;;;16.38;60.59
35248;BME280;21380;52.194;20.520;2024-02-26T00:26:40;99623.13;;;16.36;60.53
35248;BME280;21380;52.194;20.520;2024-02-26T00:29:06;99627.47;;;16.37;60.44
35248;BME280;21380;52.194;20.520;2024-02-26T00:31:31;99622.25;;;16.36;60.41
35248;BME280;21380;52.194;20.520;2024-02-26T00:33:58;99621.41;;;16.34;60.34
35248;BME280;21380;52.194;20.520;2024-02-26T00:36:23;99624.00;;;16.34;60.49
35248;BME280;21380;52.194;20.520;2024-02-26T00:38:50;99625.72;;;16.33;60.22
35248;BME280;21380;52.194;20.520;2024-02-26T00:41:18;99618.75;;;16.32;60.44
35248;BME280;21380;52.194;20.520;2024-02-26T00:43:45;99608.34;;;16.31;60.37
35248;BME280;21380;52.194;20.520;2024-02-26T00:46:10;99611.84;;;16.31;60.18
35248;BME280;21380;52.194;20.520;2024-02-26T00:48:37;99610.94;;;16.32;60.31
35248;BME280;21380;52.194;20.520;2024-02-26T00:51:03;99605.75;;;16.31;60.08
35248;BME280;21380;52.194;20.520;2024-02-26T00:53:31;99610.09;;;16.30;60.20
35248;BME280;21380;52.194;20.520;2024-02-26T00:55:57;99610.94;;;16.29;60.13
35248;BME280;21380;52.194;20.520;2024-02-26T00:58:25;99621.38;;;16.29;60.07
35248;BME280;21380;52.194;20.520;2024-02-26T01:00:51;99617.00;;;16.28;60.04
35248;BME280;21380;52.194;20.520;2024-02-26T01:03:17;99607.47;;;16.27;60.16
35248;BME280;21380;52.194;20.520;2024-02-26T01:05:43;99612.66;;;16.27;59.95
35248;BME280;21380;52.194;20.520;2024-02-26T01:08:10;99610.06;;;16.26;60.05
35248;BME280;21380;52.194;20.520;2024-02-26T01:10:35;99620.47;;;16.26;59.97
35248;BME280;21380;52.194;20.520;2024-02-26T01:13:02;99618.72;;;16.26;60.04
35248;BME280;21380;52.194;20.520;2024-02-26T01:15:27;99615.28;;;16.26;59.73
35248;BME280;21380;52.194;20.520;2024-02-26T01:17:53;99613.53;;;16.25;59.79
35248;BME280;21380;52.194;20.520;2024-02-26T01:20:19;99617.88;;;16.24;59.75
35248;BME280;21380;52.194;20.520;2024-02-26T01:22:45;99616.13;;;16.23;59.92
35248;BME280;21380;52.194;20.520;2024-02-26T01:25:11;99614.38;;;16.24;59.77
35248;BME280;21380;52.194;20.520;2024-02-26T01:27:38;99609.19;;;16.22;59.72
35248;BME280;21380;52.194;20.520;2024-02-26T01:30:04;99619.59;;;16.22;59.76
35248;BME280;21380;52.194;20.520;2024-02-26T01:32:30;99623.94;;;16.20;59.73
35248;BME280;21380;52.194;20.520;2024-02-26T01:34:56;99610.94;;;16.21;59.75
35248;BME280;21380;52.194;20.520;2024-02-26T01:37:22;99619.59;;;16.22;59.62
35248;BME280;21380;52.194;20.520;2024-02-26T01:39:48;99614.38;;;16.20;59.56
35248;BME280;21380;52.194;20.520;2024-02-26T01:42:14;99619.59;;;16.20;59.59
35248;BME280;21380;52.194;20.520;2024-02-26T01:44:40;99610.94;;;16.20;59.66
35248;BME280;21380;52.194;20.520;2024-02-26T01:47:07;99619.59;;;16.19;59.54
35248;BME280;21380;52.194;20.520;2024-02-26T01:49:33;99622.19;;;16.19;59.59
35248;BME280;21380;52.194;20.520;2024-02-26T01:52:00;99622.19;;;16.19;59.49
35248;BME280;21380;52.194;20.520;2024-02-26T01:54:27;99622.19;;;16.19;59.57
35248;BME280;21380;52.194;20.520;2024-02-26T01:56:53;99622.16;;;16.17;59.45
35248;BME280;21380;52.194;20.520;2024-02-26T01:59:19;99629.13;;;16.17;59.49
35248;BME280;21380;52.194;20.520;2024-02-26T02:01:47;99626.50;;;16.15;59.41
35248;BME280;21380;52.194;20.520;2024-02-26T02:04:14;99631.72;;;16.17;59.48
35248;BME280;21380;52.194;20.520;2024-02-26T02:06:41;99621.31;;;16.15;59.38
35248;BME280;21380;52.194;20.520;2024-02-26T02:09:07;99622.16;;;16.16;59.42
35248;BME280;21380;52.194;20.520;2024-02-26T02:11:34;99622.16;;;16.16;59.54
35248;BME280;21380;52.194;20.520;2024-02-26T02:14:00;99617.81;;;16.15;59.47
35248;BME280;21380;52.194;20.520;2024-02-26T02:16:25;99608.28;;;16.15;59.36
35248;BME280;21380;52.194;20.520;2024-02-26T02:18:52;99619.56;;;16.14;59.35
35248;BME280;21380;52.194;20.520;2024-02-26T02:21:17;99619.56;;;16.14;59.53
35248;BME280;21380;52.194;20.520;2024-02-26T02:23:43;99623.03;;;16.13;59.41
35248;BME280;21380;52.194;20.520;2024-02-26T02:26:12;99629.97;;;16.13;59.42
35248;BME280;21380;52.194;20.520;2024-02-26T02:28:39;99627.38;;;16.13;59.37
35248;BME280;21380;52.194;20.520;2024-02-26T02:31:05;99627.38;;;16.13;59.46
35248;BME280;21380;52.194;20.520;2024-02-26T02:33:31;99620.41;;;16.12;59.41
35248;BME280;21380;52.194;20.520;2024-02-26T02:35:57;99627.38;;;16.11;59.49
35248;BME280;21380;52.194;20.520;2024-02-26T02:38:23;99624.75;;;16.11;59.39
35248;BME280;21380;52.194;20.520;2024-02-26T02:40:51;99629.94;;;16.10;59.51
35248;BME280;21380;52.194;20.520;2024-02-26T02:43:17;99629.06;;;16.09;59.65
35248;BME280;21380;52.194;20.520;2024-02-26T02:45:43;99633.44;;;16.10;59.42
35248;BME280;21380;52.194;20.520;2024-02-26T02:48:10;99630.78;;;16.09;59.15
35248;BME280;21380;52.194;20.520;2024-02-26T02:50:36;99632.53;;;16.08;59.43
35248;BME280;21380;52.194;20.520;2024-02-26T02:53:02;99619.50;;;16.00;59.43
35248;BME280;21380;52.194;20.520;2024-02-26T02:55:28;99635.13;;;16.08;59.24
35248;BME280;21380;52.194;20.520;2024-02-26T02:57:54;99639.47;;;16.08;59.17
35248;BME280;21380;52.194;20.520;2024-02-26T03:00:20;99640.34;;;16.07;59.31
35248;BME280;21380;52.194;20.520;2024-02-26T03:02:48;99639.44;;;16.06;59.27
35248;BME280;21380;52.194;20.520;2024-02-26T03:05:14;99637.75;;;16.07;59.23
35248;BME280;21380;52.194;20.520;2024-02-26T03:07:40;99638.59;;;16.05;59.20
35248;BME280;21380;52.194;20.520;2024-02-26T03:10:06;99648.16;;;16.07;59.04
35248;BME280;21380;52.194;20.520;2024-02-26T03:12:33;99645.53;;;16.05;59.29
35248;BME280;21380;52.194;20.520;2024-02-26T03:14:59;99636.00;;;16.02;59.14
35248;BME280;21380;52.194;20.520;2024-02-26T03:17:28;99641.19;;;16.02;59.24
35248;BME280;21380;52.194;20.520;2024-02-26T03:19:54;99646.41;;;16.02;59.09
35248;BME280;21380;52.194;20.520;2024-02-26T03:22:20;99642.91;;;16.02;59.03
35248;BME280;21380;52.194;20.520;2024-02-26T03:24:47;99642.91;;;16.02;59.10
35248;BME280;21380;52.194;20.520;2024-02-26T03:27:13;99642.91;;;16.02;59.03
35248;BME280;21380;52.194;20.520;2024-02-26T03:29:38;99638.56;;;16.01;59.10
35248;BME280;21380;52.194;20.520;2024-02-26T03:32:05;99638.56;;;16.01;58.90
35248;BME280;21380;52.194;20.520;2024-02-26T03:34:31;99637.69;;;16.00;59.09
35248;BME280;21380;52.194;20.520;2024-02-26T03:37:00;99639.41;;;16.00;59.05
35248;BME280;21380;52.194;20.520;2024-02-26T03:39:26;99642.00;;;15.98;58.97
35248;BME280;21380;52.194;20.520;2024-02-26T03:41:52;99641.16;;;15.98;58.78
35248;BME280;21380;52.194;20.520;2024-02-26T03:44:18;99636.81;;;15.98;58.82
35248;BME280;21380;52.194;20.520;2024-02-26T03:46:44;99638.56;;;15.96;58.83
35248;BME280;21380;52.194;20.520;2024-02-26T03:49:09;99651.56;;;15.96;58.86
35248;BME280;21380;52.194;20.520;2024-02-26T03:51:36;99644.63;;;15.95;58.89
35248;BME280;21380;52.194;20.520;2024-02-26T03:54:02;99649.81;;;15.95;58.92
35248;BME280;21380;52.194;20.520;2024-02-26T03:56:28;99654.13;;;15.95;58.75
35248;BME280;21380;52.194;20.520;2024-02-26T03:58:54;99654.13;;;15.93;58.74
35248;BME280;21380;52.194;20.520;2024-02-26T04:01:20;99658.47;;;15.94;58.88
35248;BME280;21380;52.194;20.520;2024-02-26T04:03:46;99647.22;;;15.94;58.82
35248;BME280;21380;52.194;20.520;2024-02-26T04:06:12;99656.72;;;15.93;58.74
35248;BME280;21380;52.194;20.520;2024-02-26T04:08:43;99654.13;;;15.93;58.66
35248;BME280;21380;52.194;20.520;2024-02-26T04:11:09;99654.13;;;15.92;58.79
35248;BME280;21380;52.194;20.520;2024-02-26T04:13:35;99654.97;;;15.92;58.62
35248;BME280;21380;52.194;20.520;2024-02-26T04:16:01;99650.63;;;15.91;58.63
35248;BME280;21380;52.194;20.520;2024-02-26T04:18:28;99650.63;;;15.91;58.75
35248;BME280;21380;52.194;20.520;2024-02-26T04:20:54;99654.13;;;15.90;58.86
35248;BME280;21380;52.194;20.520;2024-02-26T04:23:20;99649.78;;;15.91;58.79
35248;BME280;21380;52.194;20.520;2024-02-26T04:25:46;99648.03;;;15.89;58.68
35248;BME280;21380;52.194;20.520;2024-02-26T04:28:12;99648.03;;;15.89;58.69
35248;BME280;21380;52.194;20.520;2024-02-26T04:30:38;99652.38;;;15.89;58.61
35248;BME280;21380;52.194;20.520;2024-02-26T04:33:04;99650.63;;;15.88;58.62
35248;BME280;21380;52.194;20.520;2024-02-26T04:35:31;99652.38;;;15.87;58.57
35248;BME280;21380;52.194;20.520;2024-02-26T04:37:57;99650.63;;;15.86;58.47
35248;BME280;21380;52.194;20.520;2024-02-26T04:40:23;99644.56;;;15.87;58.72
35248;BME280;21380;52.194;20.520;2024-02-26T04:42:49;99645.44;;;15.86;58.40
35248;BME280;21380;52.194;20.520;2024-02-26T04:45:15;99644.53;;;15.86;58.59
35248;BME280;21380;52.194;20.520;2024-02-26T04:47:41;99643.69;;;15.84;58.46
35248;BME280;21380;52.194;20.520;2024-02-26T04:50:07;99645.44;;;15.85;58.40
35248;BME280;21380;52.194;20.520;2024-02-26T04:52:33;99641.06;;;15.84;58.54
35248;BME280;21380;52.194;20.520;2024-02-26T04:54:59;99648.03;;;15.85;58.50
35248;BME280;21380;52.194;20.520;2024-02-26T04:57:25;99647.13;;;15.84;58.52
35248;BME280;21380;52.194;20.520;2024-02-26T04:59:52;99650.63;;;15.85;58.56
35248;BME280;21380;52.194;20.520;2024-02-26T05:02:17;99649.75;;;15.84;58.55
35248;BME280;21380;52.194;20.520;2024-02-26T05:04:43;99653.19;;;15.83;58.41
35248;BME280;21380;52.194;20.520;2024-02-26T05:07:09;99655.78;;;15.83;58.46
35248;BME280;21380;52.194;20.520;2024-02-26T05:09:35;99652.34;;;15.83;58.45
35248;BME280;21380;52.194;20.520;2024-02-26T05:12:01;99655.78;;;15.83;58.36
35248;BME280;21380;52.194;20.520;2024-02-26T05:14:28;99654.09;;;15.84;58.33
35248;BME280;21380;52.194;20.520;2024-02-26T05:16:53;99660.09;;;15.81;58.43
35248;BME280;21380;52.194;20.520;2024-02-26T05:19:19;99657.50;;;15.81;58.39
35248;BME280;21380;52.194;20.520;2024-02-26T05:21:45;99657.53;;;15.83;58.31
35248;BME280;21380;52.194;20.520;2024-02-26T05:24:13;99648.00;;;15.82;58.23
35248;BME280;21380;52.194;20.520;2024-02-26T05:26:41;99660.09;;;15.81;58.19
35248;BME280;21380;52.194;20.520;2024-02-26T05:29:07;99659.22;;;15.81;58.32
35248;BME280;21380;52.194;20.520;2024-02-26T05:31:32;99666.16;;;15.80;58.32
35248;BME280;21380;52.194;20.520;2024-02-26T05:33:59;99660.97;;;15.80;58.22
35248;BME280;21380;52.194;20.520;2024-02-26T05:36:24;99672.22;;;15.81;58.24
35248;BME280;21380;52.194;20.520;2024-02-26T05:38:51;99674.00;;;15.82;58.16
35248;BME280;21380;52.194;20.520;2024-02-26T05:41:17;99685.22;;;15.81;58.08
35248;BME280;21380;52.194;20.520;2024-02-26T05:43:52;99678.28;;;15.80;58.15
35248;BME280;21380;52.194;20.520;2024-02-26T05:46:18;99678.31;;;15.81;58.19
35248;BME280;21380;52.194;20.520;2024-02-26T05:48:45;99680.03;;;15.81;58.12
35248;BME280;21380;52.194;20.520;2024-02-26T05:51:11;99679.16;;;15.80;58.33
35248;BME280;21380;52.194;20.520;2024-02-26T05:53:37;99677.41;;;15.81;58.12
35248;BME280;21380;52.194;20.520;2024-02-26T05:56:03;99688.66;;;15.80;58.38
35248;BME280;21380;52.194;20.520;2024-02-26T05:58:29;99676.56;;;15.80;58.30
35248;BME280;21380;52.194;20.520;2024-02-26T06:00:55;99672.22;;;15.81;58.31
35248;BME280;21380;52.194;20.520;2024-02-26T06:03:21;99681.75;;;15.80;58.30
35248;BME280;21380;52.194;20.520;2024-02-26T06:05:47;99693.03;;;15.81;58.44
35248;BME280;21380;52.194;20.520;2024-02-26T06:08:13;99687.84;;;15.82;58.35
35248;BME280;21380;52.194;20.520;2024-02-26T06:10:39;99693.94;;;15.83;58.45
35248;BME280;21380;52.194;20.520;2024-02-26T06:13:05;99694.00;;;15.87;59.00
35248;BME280;21380;52.194;20.520;2024-02-26T06:15:31;99696.59;;;15.89;58.72
35248;BME280;21380;52.194;20.520;2024-02-26T06:17:57;99701.78;;;15.91;58.68
35248;BME280;21380;52.194;20.520;2024-02-26T06:20:23;99695.69;;;15.85;58.94
35248;BME280;21380;52.194;20.520;2024-02-26T06:22:49;99705.25;;;15.88;58.73
35248;BME280;21380;52.194;20.520;2024-02-26T06:25:15;99711.31;;;15.87;58.70
35248;BME280;21380;52.194;20.520;2024-02-26T06:27:42;99711.31;;;15.87;58.79
35248;BME280;21380;52.194;20.520;2024-02-26T06:30:08;99708.69;;;15.87;58.79
35248;BME280;21380;52.194;20.520;2024-02-26T06:32:37;99716.50;;;15.88;58.90
35248;BME280;21380;52.194;20.520;2024-02-26T06:35:03;99708.75;;;15.92;58.92
35248;BME280;21380;52.194;20.520;2024-02-26T06:37:33;99713.06;;;15.91;58.82
35248;BME280;21380;52.194;20.520;2024-02-26T06:40:00;99721.41;;;14.10;57.38
35248;BME280;21380;52.194;20.520;2024-02-26T06:42:26;99712.78;;;14.72;58.59
35248;BME280;21380;52.194;20.520;2024-02-26T06:44:52;99713.09;;;15.03;59.04
35248;BME280;21380;52.194;20.520;2024-02-26T06:47:18;99710.75;;;15.28;58.92
35248;BME280;21380;52.194;20.520;2024-02-26T06:49:45;99708.28;;;15.42;58.80
35248;BME280;21380;52.194;20.520;2024-02-26T06:52:11;99717.91;;;15.51;58.40
35248;BME280;21380;52.194;20.520;2024-02-26T06:54:37;99722.31;;;15.56;58.20
35248;BME280;21380;52.194;20.520;2024-02-26T06:57:03;99724.06;;;15.59;58.24
35248;BME280;21380;52.194;20.520;2024-02-26T06:59:29;99728.41;;;15.62;58.22
35248;BME280;21380;52.194;20.520;2024-02-26T07:01:55;99726.72;;;15.64;58.14
35248;BME280;21380;52.194;20.520;2024-02-26T07:04:20;99722.38;;;15.64;58.13
35248;BME280;21380;52.194;20.520;2024-02-26T07:06:47;99729.31;;;15.65;57.96
35248;BME280;21380;52.194;20.520;2024-02-26T07:09:13;99726.72;;;15.67;57.88
35248;BME280;21380;52.194;20.520;2024-02-26T07:11:39;99733.66;;;15.68;58.17
35248;BME280;21380;52.194;20.520;2024-02-26T07:14:08;99735.41;;;15.69;57.86
35248;BME280;21380;52.194;20.520;2024-02-26T07:16:34;99735.41;;;15.70;58.14
35248;BME280;21380;52.194;20.520;2024-02-26T07:19:00;99732.66;;;14.70;56.55
35248;BME280;21380;52.194;20.520;2024-02-26T07:21:26;99743.13;;;11.95;63.87
35248;BME280;21380;52.194;20.520;2024-02-26T07:23:52;99749.94;;;11.24;64.76
35248;BME280;21380;52.194;20.520;2024-02-26T07:26:18;99738.59;;;12.23;62.93
35248;BME280;21380;52.194;20.520;2024-02-26T07:28:45;99743.69;;;13.01;61.62
35248;BME280;21380;52.194;20.520;2024-02-26T07:31:11;99737.72;;;13.49;60.37
35248;BME280;21380;52.194;20.520;2024-02-26T07:33:36;99742.63;;;13.86;60.09
35248;BME280;21380;52.194;20.520;2024-02-26T07:36:03;99735.25;;;14.10;59.86
35248;BME280;21380;52.194;20.520;2024-02-26T07:38:29;99739.06;;;14.34;59.63
35248;BME280;21380;52.194;20.520;2024-02-26T07:40:55;99736.72;;;14.53;59.57
35248;BME280;21380;52.194;20.520;2024-02-26T07:43:22;99740.41;;;14.67;59.54
35248;BME280;21380;52.194;20.520;2024-02-26T07:45:48;99742.28;;;14.79;59.19
35248;BME280;21380;52.194;20.520;2024-02-26T07:48:14;99742.38;;;14.88;59.06
35248;BME280;21380;52.194;20.520;2024-02-26T07:50:40;99742.44;;;14.95;58.97
35248;BME280;21380;52.194;20.520;2024-02-26T07:53:08;99742.56;;;15.02;58.92
35248;BME280;21380;52.194;20.520;2024-02-26T07:55:34;99751.28;;;15.07;59.06
35248;BME280;21380;52.194;20.520;2024-02-26T07:58:00;99752.19;;;15.11;58.67
35248;BME280;21380;52.194;20.520;2024-02-26T08:00:26;99756.56;;;15.17;59.02
35248;BME280;21380;52.194;20.520;2024-02-26T08:02:52;99757.47;;;15.20;59.15
35248;BME280;21380;52.194;20.520;2024-02-26T08:05:18;99751.38;;;15.18;58.71
35248;BME280;21380;52.194;20.520;2024-02-26T08:07:44;99760.13;;;15.28;58.92
35248;BME280;21380;52.194;20.520;2024-02-26T08:10:10;99752.41;;;15.31;59.11
35248;BME280;21380;52.194;20.520;2024-02-26T08:12:36;99753.25;;;15.33;59.01
35248;BME280;21380;52.194;20.520;2024-02-26T08:15:03;99755.91;;;15.36;58.99
35248;BME280;21380;52.194;20.520;2024-02-26T08:17:29;99759.38;;;15.38;59.04
35248;BME280;21380;52.194;20.520;2024-02-26T08:19:55;99762.03;;;15.42;58.93
35248;BME280;21380;52.194;20.520;2024-02-26T08:22:22;99755.97;;;15.43;59.01
35248;BME280;21380;52.194;20.520;2024-02-26T08:24:49;99755.97;;;15.46;59.12
35248;BME280;21380;52.194;20.520;2024-02-26T08:27:15;99767.28;;;15.48;59.20
35248;BME280;21380;52.194;20.520;2024-02-26T08:29:41;99763.84;;;15.49;59.18
35248;BME280;21380;52.194;20.520;2024-02-26T08:32:07;99762.94;;;15.50;59.35
35248;BME280;21380;52.194;20.520;2024-02-26T08:34:33;99767.28;;;15.51;59.47
35248;BME280;21380;52.194;20.520;2024-02-26T08:36:59;99763.00;;;15.53;59.42
35248;BME280;21380;52.194;20.520;2024-02-26T08:39:25;99766.50;;;15.55;59.48
35248;BME280;21380;52.194;20.520;2024-02-26T08:41:51;99759.56;;;15.55;59.39
35248;BME280;21380;52.194;20.520;2024-02-26T08:44:17;99758.72;;;15.58;59.57
35248;BME280;21380;52.194;20.520;2024-02-26T08:46:43;99760.44;;;15.59;59.57
35248;BME280;21380;52.194;20.520;2024-02-26T08:49:09;99768.25;;;15.61;59.66
35248;BME280;21380;52.194;20.520;2024-02-26T08:51:35;99760.47;;;15.62;59.82
35248;BME280;21380;52.194;20.520;2024-02-26T08:54:06;99761.34;;;15.63;59.74
35248;BME280;21380;52.194;20.520;2024-02-26T08:56:32;99761.38;;;15.64;59.87
35248;BME280;21380;52.194;20.520;2024-02-26T08:58:58;99762.22;;;15.65;59.91
35248;BME280;21380;52.194;20.520;2024-02-26T09:01:32;99761.38;;;15.67;60.04
35248;BME280;21380;52.194;20.520;2024-02-26T09:03:58;99757.91;;;15.67;59.97
35248;BME280;21380;52.194;20.520;2024-02-26T09:06:24;99765.72;;;15.68;60.07
35248;BME280;21380;52.194;20.520;2024-02-26T09:08:50;99763.16;;;15.70;60.12
35248;BME280;21380;52.194;20.520;2024-02-26T09:11:19;99764.88;;;15.71;60.19
35248;BME280;21380;52.194;20.520;2024-02-26T09:13:45;99760.56;;;15.71;60.42
35248;BME280;21380;52.194;20.520;2024-02-26T09:16:11;99759.72;;;15.74;60.33
35248;BME280;21380;52.194;20.520;2024-02-26T09:18:37;99763.19;;;15.75;60.42
35248;BME280;21380;52.194;20.520;2024-02-26T09:21:06;99765.78;;;15.76;60.50
35248;BME280;21380;52.194;20.520;2024-02-26T09:23:32;99767.53;;;15.77;60.38
35248;BME280;21380;52.194;20.520;2024-02-26T09:26:00;99764.97;;;15.79;60.52
35248;BME280;21380;52.194;20.520;2024-02-26T09:28:26;99769.28;;;15.80;60.53
35248;BME280;21380;52.194;20.520;2024-02-26T09:30:52;99754.56;;;15.80;60.75
35248;BME280;21380;52.194;20.520;2024-02-26T09:33:19;99757.22;;;15.82;60.60
35248;BME280;21380;52.194;20.520;2024-02-26T09:35:45;99757.22;;;15.82;60.61
35248;BME280;21380;52.194;20.520;2024-02-26T09:38:11;99753.75;;;15.83;60.83
35248;BME280;21380;52.194;20.520;2024-02-26T09:40:37;99752.06;;;15.85;60.88
35248;BME280;21380;52.194;20.520;2024-02-26T09:43:05;99758.97;;;15.86;61.05
35248;BME280;21380;52.194;20.520;2024-02-26T09:45:33;99753.78;;;15.86;60.92
35248;BME280;21380;52.194;20.520;2024-02-26T09:47:59;99757.25;;;15.88;60.88
35248;BME280;21380;52.194;20.520;2024-02-26T09:50:26;99764.22;;;15.89;61.15
35248;BME280;21380;52.194;20.520;2024-02-26T09:52:52;99761.63;;;15.91;61.07
35248;BME280;21380;52.194;20.520;2024-02-26T09:55:20;99762.47;;;15.91;61.08
35248;BME280;21380;52.194;20.520;2024-02-26T09:57:46;99762.31;;;15.74;61.68
35248;BME280;21380;52.194;20.520;2024-02-26T10:00:17;99754.22;;;15.45;63.52
35248;BME280;21380;52.194;20.520;2024-02-26T10:02:46;99766.16;;;15.22;64.60
35248;BME280;21380;52.194;20.520;2024-02-26T10:05:16;99762.19;;;15.60;63.75
35248;BME280;21380;52.194;20.520;2024-02-26T10:07:46;99770.38;;;16.00;62.90
35248;BME280;21380;52.194;20.520;2024-02-26T10:10:12;99762.75;;;16.30;62.21
35248;BME280;21380;52.194;20.520;2024-02-26T10:12:39;99762.88;;;16.50;61.46
35248;BME280;21380;52.194;20.520;2024-02-26T10:15:05;99765.59;;;16.67;61.04
35248;BME280;21380;52.194;20.520;2024-02-26T10:17:31;99768.25;;;16.81;60.58
35248;BME280;21380;52.194;20.520;2024-02-26T10:22:38;99756.22;;;17.03;60.07
35248;BME280;21380;52.194;20.520;2024-02-26T10:25:03;99757.13;;;17.13;59.81
35248;BME280;21380;52.194;20.520;2024-02-26T10:27:30;99760.59;;;17.21;59.57
35248;BME280;21380;52.194;20.520;2024-02-26T10:29:58;99759.78;;;17.25;59.47
35248;BME280;21380;52.194;20.520;2024-02-26T10:32:28;99758.03;;;17.30;59.23
35248;BME280;21380;52.194;20.520;2024-02-26T10:34:56;99761.53;;;17.36;59.14
35248;BME280;21380;52.194;20.520;2024-02-26T10:37:23;99762.41;;;17.39;59.00
35248;BME280;21380;52.194;20.520;2024-02-26T10:39:48;99756.31;;;17.45;59.21
35248;BME280;21380;52.194;20.520;2024-02-26T10:42:15;99755.44;;;17.47;58.94
35248;BME280;21380;52.194;20.520;2024-02-26T10:44:43;99751.09;;;17.51;58.87
35248;BME280;21380;52.194;20.520;2024-02-26T10:47:10;99758.94;;;17.53;58.81
35248;BME280;21380;52.194;20.520;2024-02-26T10:49:36;99759.81;;;17.56;58.84
35248;BME280;21380;52.194;20.520;2024-02-26T10:52:03;99745.91;;;17.57;58.81
35248;BME280;21380;52.194;20.520;2024-02-26T10:54:29;99752.00;;;17.59;58.81
35248;BME280;21380;52.194;20.520;2024-02-26T10:56:57;99747.63;;;17.61;58.96
35248;BME280;21380;52.194;20.520;2024-02-26T10:59:24;99748.53;;;17.62;58.65
35248;BME280;21380;52.194;20.520;2024-02-26T11:01:50;99747.66;;;17.64;58.78
35248;BME280;21380;52.194;20.520;2024-02-26T11:04:17;99749.41;;;17.64;58.85
35248;BME280;21380;52.194;20.520;2024-02-26T11:06:48;99753.75;;;17.66;58.92
35248;BME280;21380;52.194;20.520;2024-02-26T11:09:15;99748.53;;;17.68;58.73
35248;BME280;21380;52.194;20.520;2024-02-26T11:11:42;99749.38;;;17.69;58.93
35248;BME280;21380;52.194;20.520;2024-02-26T11:14:08;99745.91;;;17.70;58.77
35248;BME280;21380;52.194;20.520;2024-02-26T11:16:35;99747.66;;;17.71;59.08
35248;BME280;21380;52.194;20.520;2024-02-26T11:19:02;99730.25;;;17.63;58.85
35248;BME280;21380;52.194;20.520;2024-02-26T11:21:29;99737.22;;;17.72;59.02
35248;BME280;21380;52.194;20.520;2024-02-26T11:24:08;99745.94;;;17.73;58.96
35248;BME280;21380;52.194;20.520;2024-02-26T11:26:36;99735.50;;;17.73;59.04
35248;BME280;21380;52.194;20.520;2024-02-26T11:29:05;99745.03;;;17.74;58.92
35248;BME280;21380;52.194;20.520;2024-02-26T11:31:33;99755.50;;;17.75;58.90
35248;BME280;21380;52.194;20.520;2024-02-26T11:33:59;99754.59;;;17.75;59.03
35248;BME280;21380;52.194;20.520;2024-02-26T11:36:25;99753.75;;;17.76;59.23
35248;BME280;21380;52.194;20.520;2024-02-26T11:38:51;99763.31;;;17.75;59.33
35248;BME280;21380;52.194;20.520;2024-02-26T11:41:20;99763.31;;;17.77;59.34
35248;BME280;21380;52.194;20.520;2024-02-26T11:43:52;99758.97;;;17.77;59.58
35248;BME280;21380;52.194;20.520;2024-02-26T11:46:25;99755.47;;;17.78;59.22
35248;BME280;21380;52.194;20.520;2024-02-26T11:48:54;99766.78;;;17.79;59.36
35248;BME280;21380;52.194;20.520;2024-02-26T11:51:24;99771.13;;;17.78;59.20
35248;BME280;21380;52.194;20.520;2024-02-26T11:53:50;99759.84;;;17.79;59.48
35248;BME280;21380;52.194;20.520;2024-02-26T12:04:07;99762.44;;;17.79;59.46
35248;BME280;21380;52.194;20.520;2024-02-26T12:07:18;99761.56;;;17.79;59.41
35248;BME280;21380;52.194;20.520;2024-02-26T12:12:06;99762.44;;;17.79;59.47
35248;BME280;21380;52.194;20.520;2024-02-26T12:14:55;99768.53;;;17.80;59.51
35248;BME280;21380;52.194;20.520;2024-02-26T12:17:19;99770.25;;;17.81;59.63
35248;BME280;21380;52.194;20.520;2024-02-26T12:19:45;99764.19;;;17.80;59.47
35248;BME280;21380;52.194;20.520;2024-02-26T12:22:14;99769.41;;;17.80;59.75
35248;BME280;21380;52.194;20.520;2024-02-26T12:24:42;99766.78;;;17.79;59.71
35248;BME280;21380;52.194;20.520;2024-02-26T12:27:08;99758.94;;;17.79;59.69
35248;BME280;21380;52.194;20.520;2024-02-26T12:29:34;99765.06;;;17.78;59.51
35248;BME280;21380;52.194;20.520;2024-02-26T12:32:00;99769.88;;;16.56;63.64
35248;BME280;21380;52.194;20.520;2024-02-26T12:34:27;99766.81;;;15.87;65.78
35248;BME280;21380;52.194;20.520;2024-02-26T12:36:53;99772.59;;;15.62;66.93
35248;BME280;21380;52.194;20.520;2024-02-26T12:39:20;99776.69;;;15.38;67.64
35248;BME280;21380;52.194;20.520;2024-02-26T12:41:46;99777.34;;;15.18;68.25
35248;BME280;21380;52.194;20.520;2024-02-26T12:44:18;99768.63;;;15.12;68.78
35248;BME280;21380;52.194;20.520;2024-02-26T12:46:50;99769.38;;;15.03;69.47
35248;BME280;21380;52.194;20.520;2024-02-26T12:49:15;99769.97;;;14.79;70.25
35248;BME280;21380;52.194;20.520;2024-02-26T12:51:45;99778.53;;;14.71;71.12
35248;BME280;21380;52.194;20.520;2024-02-26T12:54:11;99778.34;;;14.62;71.40
35248;BME280;21380;52.194;20.520;2024-02-26T12:56:37;99782.75;;;14.65;71.35
35248;BME280;21380;52.194;20.520;2024-02-26T12:59:03;99774.81;;;14.57;71.78
35248;BME280;21380;52.194;20.520;2024-02-26T13:01:29;99771.22;;;14.46;73.06